Time;durP1;ratioP1;P1;durP2;ratioP2;P2;SDS_P1;SDS_P2;PMS_P1;PMS_P2;Temp;Humidity;BMP_temperature;BMP_pressure;BME280_temperature;BME280_humidity;BME280_pressure;Samples;Min_cycle;Max_cycle;Signal;HPM_P1;HPM_P2
2021/09/17 00:00:54;;;;;;;2.50;2.40;;;12.20;99.90;;;;;;485159;245;28715;-70
2021/09/17 00:02:55;;;;;;;2.60;2.40;;;12.10;99.90;;;;;;485132;245;28738;-70
2021/09/17 00:04:56;;;;;;;2.73;2.53;;;12.10;99.90;;;;;;485168;245;28689;-70
2021/09/17 00:06:57;;;;;;;3.33;3.03;;;12.10;99.90;;;;;;485160;245;28295;-70
2021/09/17 00:08:59;;;;;;;3.00;2.80;;;12.00;99.90;;;;;;485051;245;28261;-70
2021/09/17 00:11:00;;;;;;;3.00;2.80;;;11.90;99.90;;;;;;485148;245;28208;-70
2021/09/17 00:13:01;;;;;;;2.80;2.63;;;11.80;99.90;;;;;;485212;245;28244;-70
2021/09/17 00:15:02;;;;;;;2.70;2.50;;;11.90;99.90;;;;;;485181;245;28132;-70
2021/09/17 00:17:04;;;;;;;2.50;2.40;;;11.80;99.90;;;;;;485201;245;28234;-70
2021/09/17 00:19:05;;;;;;;2.73;2.53;;;11.80;99.90;;;;;;485223;245;28239;-70
2021/09/17 00:21:06;;;;;;;2.50;2.30;;;11.80;99.90;;;;;;485223;245;27993;-70
2021/09/17 00:23:07;;;;;;;2.37;2.17;;;11.80;99.90;;;;;;485210;243;28192;-70
2021/09/17 00:25:09;;;;;;;2.40;2.30;;;11.70;99.90;;;;;;485229;245;28541;-70
2021/09/17 00:27:10;;;;;;;2.20;2.10;;;11.70;99.90;;;;;;485228;245;28789;-70
2021/09/17 00:29:11;;;;;;;2.47;2.27;;;11.70;99.90;;;;;;485170;245;28597;-70
2021/09/17 00:31:12;;;;;;;2.60;2.40;;;11.70;99.90;;;;;;485233;245;28173;-70
2021/09/17 00:33:14;;;;;;;2.90;2.70;;;11.70;99.90;;;;;;485199;245;28076;-70
2021/09/17 00:35:15;;;;;;;2.57;2.47;;;11.70;99.90;;;;;;485211;245;28011;-70
2021/09/17 00:37:16;;;;;;;2.47;2.37;;;11.60;99.90;;;;;;485195;245;28269;-70
2021/09/17 00:39:17;;;;;;;3.10;2.47;;;11.60;99.90;;;;;;485217;245;28240;-70
2021/09/17 00:41:19;;;;;;;2.43;2.33;;;11.60;99.90;;;;;;485205;245;28226;-70
2021/09/17 00:43:20;;;;;;;2.70;2.50;;;11.50;99.90;;;;;;485181;245;27981;-70
2021/09/17 00:45:21;;;;;;;2.53;2.40;;;11.50;99.90;;;;;;485219;245;28056;-70
2021/09/17 00:47:22;;;;;;;3.10;2.30;;;11.50;99.90;;;;;;485208;245;28148;-70
2021/09/17 00:49:24;;;;;;;2.47;2.37;;;11.50;99.90;;;;;;485193;245;28624;-70
2021/09/17 00:51:25;;;;;;;2.43;2.33;;;11.50;99.90;;;;;;485214;245;28520;-70
2021/09/17 00:53:28;;;;;;;3.30;2.57;;;11.40;99.90;;;;;;485146;245;28564;-70
2021/09/17 00:55:27;;;;;;;2.20;2.10;;;11.40;99.90;;;;;;485095;245;28656;-69
2021/09/17 00:57:29;;;;;;;2.57;2.47;;;11.30;99.90;;;;;;485196;245;27885;-70
2021/09/17 00:59:30;;;;;;;2.30;2.10;;;11.30;99.90;;;;;;485199;245;28050;-70
2021/09/17 01:01:31;;;;;;;2.37;2.27;;;11.30;99.90;;;;;;485227;245;27970;-70
2021/09/17 01:03:33;;;;;;;2.80;2.60;;;11.30;99.90;;;;;;485194;245;28094;-70
2021/09/17 01:05:34;;;;;;;2.50;2.40;;;11.30;99.90;;;;;;485216;245;28185;-70
2021/09/17 01:07:35;;;;;;;2.40;2.30;;;11.30;99.90;;;;;;485181;245;28117;-70
2021/09/17 01:09:36;;;;;;;2.20;2.10;;;11.20;99.90;;;;;;485209;245;28063;-70
2021/09/17 01:11:38;;;;;;;2.37;2.17;;;11.20;99.90;;;;;;485213;245;28120;-70
2021/09/17 01:13:39;;;;;;;2.33;2.23;;;11.30;99.90;;;;;;485222;245;27904;-70
2021/09/17 01:15:40;;;;;;;2.20;2.10;;;11.20;99.90;;;;;;485199;245;27917;-70
2021/09/17 01:17:41;;;;;;;2.20;2.10;;;11.20;99.90;;;;;;485212;245;27761;-69
2021/09/17 01:19:43;;;;;;;2.37;2.27;;;11.10;99.90;;;;;;485200;245;27995;-70
2021/09/17 01:21:44;;;;;;;2.57;2.37;;;11.10;99.90;;;;;;485189;245;28302;-70
2021/09/17 01:23:45;;;;;;;3.53;2.50;;;11.00;99.90;;;;;;485222;245;28544;-70
2021/09/17 01:25:46;;;;;;;2.50;2.10;;;11.00;99.90;;;;;;485180;245;28411;-70
2021/09/17 01:27:48;;;;;;;2.47;2.37;;;11.00;99.90;;;;;;485225;245;28321;-69
2021/09/17 01:29:49;;;;;;;1.97;1.87;;;11.00;99.90;;;;;;485207;245;27873;-70
2021/09/17 01:31:53;;;;;;;2.30;2.20;;;10.90;99.90;;;;;;485134;245;28242;-70
2021/09/17 01:33:51;;;;;;;2.40;2.30;;;10.90;99.90;;;;;;484786;245;27979;-70
2021/09/17 01:35:53;;;;;;;2.27;2.17;;;10.90;99.90;;;;;;485086;245;27916;-70
2021/09/17 01:37:54;;;;;;;2.50;2.40;;;10.90;99.90;;;;;;485041;245;27718;-70
2021/09/17 01:39:55;;;;;;;2.50;2.37;;;10.90;99.90;;;;;;484887;245;28008;-70
2021/09/17 01:41:56;;;;;;;2.30;2.20;;;10.90;99.90;;;;;;485198;245;27919;-70
2021/09/17 01:43:58;;;;;;;2.13;2.03;;;10.90;99.90;;;;;;485055;245;28136;-70
2021/09/17 01:45:59;;;;;;;2.70;2.53;;;10.90;99.90;;;;;;485175;245;28453;-70
2021/09/17 01:48:00;;;;;;;2.43;2.33;;;10.90;99.90;;;;;;485220;245;28580;-70
2021/09/17 01:50:01;;;;;;;2.20;2.10;;;10.80;99.90;;;;;;485206;245;28598;-70
2021/09/17 01:52:03;;;;;;;2.40;2.30;;;10.80;99.90;;;;;;485234;245;28331;-70
2021/09/17 01:54:04;;;;;;;2.40;2.30;;;10.70;99.90;;;;;;485216;245;27936;-70
2021/09/17 01:56:05;;;;;;;2.40;2.30;;;10.70;99.90;;;;;;485213;245;27908;-70
2021/09/17 01:58:06;;;;;;;2.43;2.33;;;10.70;99.90;;;;;;485210;245;27636;-70
2021/09/17 02:00:08;;;;;;;2.30;2.20;;;10.70;99.90;;;;;;485236;245;27876;-71
2021/09/17 02:02:09;;;;;;;2.50;2.40;;;10.70;99.90;;;;;;485226;245;27600;-70
2021/09/17 02:04:10;;;;;;;2.30;2.20;;;10.70;99.90;;;;;;485244;245;28050;-70
2021/09/17 02:06:11;;;;;;;2.60;2.50;;;10.80;99.90;;;;;;485222;245;28453;-70
2021/09/17 02:08:13;;;;;;;2.20;2.10;;;10.70;99.90;;;;;;485226;245;27994;-70
2021/09/17 02:10:14;;;;;;;2.43;2.23;;;10.70;99.90;;;;;;485196;245;27898;-70
2021/09/17 02:12:15;;;;;;;2.70;2.50;;;10.60;99.90;;;;;;485193;245;28638;-70
2021/09/17 02:14:16;;;;;;;2.60;2.40;;;10.60;99.90;;;;;;485210;245;28458;-70
2021/09/17 02:16:18;;;;;;;2.40;2.30;;;10.60;99.90;;;;;;485226;245;28476;-70
2021/09/17 02:18:19;;;;;;;2.50;2.30;;;10.60;99.90;;;;;;485251;245;27970;-70
2021/09/17 02:20:20;;;;;;;2.80;2.60;;;10.60;99.90;;;;;;485180;245;28011;-70
2021/09/17 02:22:21;;;;;;;2.40;2.30;;;10.60;99.90;;;;;;485231;245;27975;-70
2021/09/17 02:24:24;;;;;;;2.20;2.10;;;10.50;99.90;;;;;;485220;243;27771;-70
2021/09/17 02:26:24;;;;;;;2.33;2.23;;;10.40;99.90;;;;;;485169;245;27862;-71
2021/09/17 02:28:25;;;;;;;2.10;1.90;;;10.40;99.90;;;;;;485238;245;28093;-69
2021/09/17 02:30:26;;;;;;;2.57;2.40;;;10.40;99.90;;;;;;485206;240;28003;-70
2021/09/17 02:32:28;;;;;;;3.00;2.80;;;10.40;99.90;;;;;;485225;245;27978;-70
2021/09/17 02:34:29;;;;;;;2.47;2.37;;;10.40;99.90;;;;;;485238;245;27891;-70
2021/09/17 02:36:30;;;;;;;2.50;2.40;;;10.40;99.90;;;;;;485249;245;28634;-70
2021/09/17 02:38:31;;;;;;;2.00;1.90;;;10.40;99.90;;;;;;485148;245;28404;-70
2021/09/17 02:40:33;;;;;;;2.10;2.00;;;10.30;99.90;;;;;;485205;245;28096;-70
2021/09/17 02:42:34;;;;;;;3.00;2.80;;;10.30;99.90;;;;;;485241;245;27818;-70
2021/09/17 02:44:35;;;;;;;2.40;2.30;;;10.30;99.90;;;;;;485212;245;28085;-70
2021/09/17 02:46:36;;;;;;;2.43;2.33;;;10.30;99.90;;;;;;485203;245;27904;-70
2021/09/17 02:48:38;;;;;;;2.57;2.37;;;10.30;99.90;;;;;;485243;245;28031;-70
2021/09/17 02:50:39;;;;;;;2.60;2.50;;;10.40;99.90;;;;;;485230;245;27993;-70
2021/09/17 02:52:40;;;;;;;2.40;2.30;;;10.40;99.90;;;;;;485228;245;27533;-70
2021/09/17 02:54:41;;;;;;;2.80;2.60;;;10.40;99.90;;;;;;485247;245;28001;-69
2021/09/17 02:56:43;;;;;;;2.60;2.40;;;10.40;99.90;;;;;;485198;245;28018;-70
2021/09/17 02:58:44;;;;;;;2.77;2.57;;;10.50;99.90;;;;;;485238;245;27738;-69
2021/09/17 03:00:45;;;;;;;2.73;2.10;;;10.50;99.90;;;;;;485183;245;28574;-70
2021/09/17 03:02:46;;;;;;;2.70;2.50;;;10.50;99.90;;;;;;485215;245;28424;-69
2021/09/17 03:04:48;;;;;;;3.43;2.40;;;10.60;99.90;;;;;;485217;245;28500;-70
2021/09/17 03:06:49;;;;;;;2.40;2.20;;;10.60;99.90;;;;;;485150;245;28670;-70
2021/09/17 03:08:50;;;;;;;2.67;2.47;;;10.60;99.90;;;;;;485213;245;28011;-70
2021/09/17 03:10:56;;;;;;;2.77;2.57;;;10.70;99.90;;;;;;485162;245;27998;-70
2021/09/17 03:12:53;;;;;;;2.20;2.10;;;10.70;99.90;;;;;;484890;245;27648;-70
2021/09/17 03:14:54;;;;;;;2.80;2.60;;;10.70;99.90;;;;;;485172;245;28028;-70
2021/09/17 03:16:55;;;;;;;2.27;2.17;;;10.70;99.90;;;;;;485224;245;28023;-70
2021/09/17 03:18:56;;;;;;;3.03;2.83;;;10.60;99.90;;;;;;485228;243;27754;-70
2021/09/17 03:20:58;;;;;;;2.27;2.17;;;10.70;99.90;;;;;;485026;245;27896;-69
2021/09/17 03:23:00;;;;;;;2.40;2.30;;;10.70;99.90;;;;;;485169;245;28402;-69
2021/09/17 03:25:00;;;;;;;2.47;2.37;;;10.80;99.90;;;;;;485124;245;28434;-70
2021/09/17 03:27:01;;;;;;;2.40;2.30;;;10.70;99.90;;;;;;485192;245;28378;-70
2021/09/17 03:29:03;;;;;;;2.50;2.30;;;10.70;99.90;;;;;;485211;245;28547;-70
2021/09/17 03:31:04;;;;;;;2.60;2.43;;;10.80;99.90;;;;;;485196;245;28607;-71
2021/09/17 03:33:05;;;;;;;2.80;2.60;;;10.80;99.90;;;;;;485217;245;28113;-70
2021/09/17 03:35:06;;;;;;;3.00;2.70;;;10.90;99.90;;;;;;485178;245;27980;-70
2021/09/17 03:37:08;;;;;;;2.63;2.43;;;10.90;99.90;;;;;;485186;245;28094;-70
2021/09/17 03:39:09;;;;;;;2.73;2.53;;;10.90;99.90;;;;;;485207;245;28113;-70
2021/09/17 03:41:10;;;;;;;2.53;2.33;;;10.90;99.90;;;;;;485195;245;28043;-70
2021/09/17 03:43:11;;;;;;;2.57;2.40;;;10.90;99.90;;;;;;485232;245;28061;-70
2021/09/17 03:45:13;;;;;;;2.80;2.60;;;11.00;99.90;;;;;;485224;245;27996;-70
2021/09/17 03:47:14;;;;;;;2.37;2.27;;;11.00;99.90;;;;;;485218;245;28012;-69
2021/09/17 03:49:15;;;;;;;2.70;2.50;;;11.00;99.90;;;;;;485196;245;27853;-70
2021/09/17 03:51:16;;;;;;;3.10;2.90;;;11.00;99.90;;;;;;485170;245;28371;-70
2021/09/17 03:53:18;;;;;;;2.77;2.57;;;11.00;99.90;;;;;;485203;245;28422;-70
2021/09/17 03:55:19;;;;;;;3.50;3.20;;;11.00;99.90;;;;;;485200;244;28523;-70
2021/09/17 03:57:20;;;;;;;2.63;2.43;;;11.00;99.90;;;;;;485198;245;27605;-70
2021/09/17 03:59:21;;;;;;;3.20;2.90;;;11.10;99.90;;;;;;485214;245;27842;-70
2021/09/17 04:01:23;;;;;;;3.13;2.93;;;11.10;99.90;;;;;;485192;245;28087;-70
2021/09/17 04:03:24;;;;;;;2.90;2.70;;;11.10;99.90;;;;;;485231;245;28035;-70
2021/09/17 04:05:25;;;;;;;2.60;2.43;;;11.10;99.90;;;;;;485207;245;27853;-70
2021/09/17 04:07:26;;;;;;;3.00;2.80;;;11.20;99.90;;;;;;485186;245;27692;-70
2021/09/17 04:09:28;;;;;;;3.23;2.90;;;11.20;99.90;;;;;;485265;245;27980;-70
2021/09/17 04:11:29;;;;;;;2.90;2.70;;;11.20;99.90;;;;;;485203;242;27873;-70
2021/09/17 04:13:30;;;;;;;2.90;2.70;;;11.30;99.90;;;;;;485234;245;28164;-70
2021/09/17 04:15:31;;;;;;;2.93;2.73;;;11.30;99.90;;;;;;485214;245;28509;-69
2021/09/17 04:17:33;;;;;;;3.07;2.87;;;11.30;99.90;;;;;;485178;245;28376;-69
2021/09/17 04:19:36;;;;;;;2.83;2.63;;;11.30;99.90;;;;;;485208;245;28445;-70
2021/09/17 04:21:35;;;;;;;2.90;2.70;;;11.30;99.90;;;;;;485099;245;28088;-70
2021/09/17 04:23:37;;;;;;;3.00;2.80;;;11.20;99.90;;;;;;485218;245;27844;-70
2021/09/17 04:25:38;;;;;;;3.27;2.97;;;11.30;99.90;;;;;;485209;245;27975;-69
2021/09/17 04:27:40;;;;;;;2.90;2.67;;;11.30;99.90;;;;;;485198;245;28095;-70
2021/09/17 04:29:40;;;;;;;3.00;2.80;;;11.30;99.90;;;;;;485120;245;27990;-70
2021/09/17 04:31:42;;;;;;;3.10;2.90;;;11.30;99.90;;;;;;485184;245;28099;-70
2021/09/17 04:33:43;;;;;;;2.90;2.70;;;11.30;99.90;;;;;;485196;243;28093;-69
2021/09/17 04:35:44;;;;;;;2.90;2.70;;;11.30;99.90;;;;;;485205;245;28061;-70
2021/09/17 04:37:45;;;;;;;2.97;2.77;;;11.30;99.90;;;;;;485172;245;28034;-70
2021/09/17 04:39:47;;;;;;;3.00;2.80;;;11.40;99.90;;;;;;485193;245;28563;-70
2021/09/17 04:41:48;;;;;;;3.20;3.00;;;11.40;99.90;;;;;;485166;245;28528;-70
2021/09/17 04:43:49;;;;;;;3.20;3.00;;;11.40;99.90;;;;;;485215;245;28609;-69
2021/09/17 04:45:50;;;;;;;2.80;2.60;;;11.40;99.90;;;;;;485188;243;28618;-70
2021/09/17 04:47:52;;;;;;;2.97;2.77;;;11.30;99.90;;;;;;485195;245;28057;-70
2021/09/17 04:49:53;;;;;;;3.17;2.97;;;11.30;99.90;;;;;;485186;245;27925;-70
2021/09/17 04:51:54;;;;;;;3.10;2.90;;;11.30;99.90;;;;;;485204;245;27993;-70
2021/09/17 04:53:55;;;;;;;3.27;2.97;;;11.40;99.90;;;;;;485167;245;28191;-70
2021/09/17 04:55:57;;;;;;;3.77;3.53;;;11.40;99.90;;;;;;485204;245;28117;-70
2021/09/17 04:57:58;;;;;;;3.40;3.20;;;11.40;99.90;;;;;;485189;243;28035;-70
2021/09/17 04:59:59;;;;;;;3.53;3.23;;;11.40;99.90;;;;;;485206;245;27962;-70
2021/09/17 05:02:00;;;;;;;3.53;3.20;;;11.50;99.90;;;;;;485198;245;28022;-70
2021/09/17 05:04:02;;;;;;;3.40;3.10;;;11.40;99.90;;;;;;485205;242;28218;-70
2021/09/17 05:06:03;;;;;;;3.47;3.20;;;11.40;99.90;;;;;;485206;245;28553;-69
2021/09/17 05:08:04;;;;;;;3.40;3.20;;;11.40;99.90;;;;;;485190;245;28682;-70
2021/09/17 05:10:05;;;;;;;3.40;3.20;;;11.50;99.90;;;;;;485220;245;28444;-70
2021/09/17 05:12:07;;;;;;;3.60;3.30;;;11.40;99.90;;;;;;485238;245;28100;-70
2021/09/17 05:14:08;;;;;;;3.37;3.17;;;11.40;99.90;;;;;;485196;241;28149;-70
2021/09/17 05:16:09;;;;;;;3.43;3.10;;;11.50;99.90;;;;;;485216;245;28056;-70
2021/09/17 05:18:10;;;;;;;3.70;3.40;;;11.50;99.90;;;;;;485176;245;28132;-70
2021/09/17 05:20:12;;;;;;;3.60;2.83;;;11.40;99.90;;;;;;485158;245;27998;-70
2021/09/17 05:22:13;;;;;;;3.03;2.83;;;11.40;99.90;;;;;;485180;245;27877;-70
2021/09/17 05:24:14;;;;;;;3.07;2.87;;;11.40;99.90;;;;;;485209;245;28072;-70
2021/09/17 05:26:15;;;;;;;3.20;3.00;;;11.40;99.90;;;;;;485196;245;27899;-70
2021/09/17 05:28:17;;;;;;;3.47;3.23;;;11.50;99.90;;;;;;485212;245;28078;-70
2021/09/17 05:30:18;;;;;;;3.20;3.00;;;11.50;99.90;;;;;;485204;245;29255;-70
2021/09/17 05:32:20;;;;;;;3.63;3.33;;;11.50;99.90;;;;;;485212;245;28437;-70
2021/09/17 05:34:20;;;;;;;3.00;2.80;;;11.50;99.90;;;;;;485148;245;28492;-70
2021/09/17 05:36:22;;;;;;;3.37;3.07;;;11.60;99.90;;;;;;485206;245;28041;-70
2021/09/17 05:38:23;;;;;;;3.23;3.03;;;11.60;99.90;;;;;;485199;245;28095;-70
2021/09/17 05:40:24;;;;;;;3.53;3.23;;;11.60;99.90;;;;;;485142;245;28319;-70
2021/09/17 05:42:25;;;;;;;4.23;3.70;;;11.60;99.90;;;;;;485217;245;28041;-69
2021/09/17 05:44:27;;;;;;;3.87;3.57;;;11.70;99.90;;;;;;485247;245;27888;-70
2021/09/17 05:46:28;;;;;;;3.40;3.20;;;11.70;99.90;;;;;;485226;245;28102;-70
2021/09/17 05:48:29;;;;;;;3.50;3.30;;;11.60;99.90;;;;;;485224;245;28132;-70
2021/09/17 05:50:30;;;;;;;3.93;3.63;;;11.70;99.90;;;;;;485255;245;28020;-70
2021/09/17 05:52:32;;;;;;;3.77;3.40;;;11.70;99.90;;;;;;485223;245;28102;-70
2021/09/17 05:54:33;;;;;;;4.70;3.60;;;11.70;99.90;;;;;;485251;245;28569;-70
2021/09/17 05:56:34;;;;;;;3.43;3.23;;;11.70;99.90;;;;;;485226;245;28649;-70
2021/09/17 05:58:37;;;;;;;3.63;3.37;;;11.80;99.90;;;;;;485223;245;28610;-70
2021/09/17 06:00:37;;;;;;;3.20;3.00;;;11.80;99.90;;;;;;485151;245;28246;-70
2021/09/17 06:02:38;;;;;;;3.47;3.27;;;11.90;99.90;;;;;;485189;245;28074;-70
2021/09/17 06:04:39;;;;;;;3.10;2.90;;;11.90;99.90;;;;;;485199;245;28119;-70
2021/09/17 06:06:40;;;;;;;3.63;3.33;;;12.00;99.90;;;;;;485193;245;28369;-70
2021/09/17 06:08:42;;;;;;;3.27;3.07;;;12.00;99.90;;;;;;485221;245;28133;-70
2021/09/17 06:10:43;;;;;;;3.53;3.23;;;12.10;99.90;;;;;;485254;245;28143;-70
2021/09/17 06:12:44;;;;;;;3.37;3.17;;;12.10;99.90;;;;;;485218;245;28227;-70
2021/09/17 06:14:45;;;;;;;3.93;3.37;;;12.10;99.90;;;;;;485232;245;28383;-70
2021/09/17 06:16:47;;;;;;;3.50;3.10;;;12.20;99.90;;;;;;485221;245;28433;-70
2021/09/17 06:18:48;;;;;;;3.10;2.90;;;12.20;99.90;;;;;;485187;245;28838;-70
2021/09/17 06:20:49;;;;;;;3.53;3.33;;;12.20;99.90;;;;;;485212;245;28720;-70
2021/09/17 06:22:53;;;;;;;3.30;3.10;;;12.20;99.90;;;;;;485205;245;28893;-70
2021/09/17 06:24:52;;;;;;;3.47;2.90;;;12.20;99.90;;;;;;485049;245;28697;-70
2021/09/17 06:26:53;;;;;;;3.50;3.20;;;12.30;99.90;;;;;;485182;245;28432;-70
2021/09/17 06:28:54;;;;;;;3.43;3.23;;;12.30;99.90;;;;;;485205;245;28422;-70
2021/09/17 06:30:55;;;;;;;2.97;2.60;;;12.30;99.90;;;;;;485237;245;28231;-70
2021/09/17 06:32:57;;;;;;;3.30;3.10;;;12.40;99.90;;;;;;485147;245;28086;-70
2021/09/17 06:34:59;;;;;;;4.17;3.43;;;;;;;;;;485203;245;28263;-70
2021/09/17 06:37:00;;;;;;;3.33;3.13;;;12.50;99.90;;;;;;485218;245;27608;-70
2021/09/17 06:39:02;;;;;;;3.40;3.10;;;12.50;99.90;;;;;;485179;245;28227;-71
2021/09/17 06:41:03;;;;;;;3.20;3.00;;;12.50;99.90;;;;;;485179;245;28435;-70
2021/09/17 06:43:04;;;;;;;3.00;2.80;;;12.60;99.90;;;;;;485176;245;28366;-70
2021/09/17 06:45:05;;;;;;;3.43;3.23;;;12.60;99.90;;;;;;485212;245;28537;-70
2021/09/17 06:47:07;;;;;;;3.00;2.80;;;12.60;99.90;;;;;;485192;245;28544;-70
2021/09/17 06:49:08;;;;;;;3.00;2.80;;;12.60;99.90;;;;;;485201;245;28111;-70
2021/09/17 06:51:09;;;;;;;3.13;2.93;;;12.60;99.90;;;;;;485173;245;28642;-70
2021/09/17 06:53:10;;;;;;;3.10;2.90;;;12.70;99.90;;;;;;485194;245;28607;-70
2021/09/17 06:55:12;;;;;;;2.60;2.50;;;12.70;99.90;;;;;;485192;245;29759;-72
2021/09/17 06:57:13;;;;;;;3.07;2.87;;;12.80;99.90;;;;;;485208;245;29304;-71
2021/09/17 06:59:14;;;;;;;2.90;2.70;;;12.80;99.90;;;;;;485197;245;28691;-71
2021/09/17 07:01:15;;;;;;;3.40;3.10;;;12.80;99.90;;;;;;485215;245;28635;-70
2021/09/17 07:03:17;;;;;;;3.20;3.00;;;12.90;99.90;;;;;;485183;245;28547;-69
2021/09/17 07:05:18;;;;;;;2.93;2.73;;;12.90;99.90;;;;;;485198;245;28632;-69
2021/09/17 07:07:19;;;;;;;3.70;3.40;;;13.00;99.90;;;;;;485180;245;28307;-70
2021/09/17 07:09:20;;;;;;;3.13;2.93;;;13.00;99.90;;;;;;485197;245;28531;-70
2021/09/17 07:11:23;;;;;;;3.33;3.13;;;13.10;99.90;;;;;;485217;245;28430;-70
2021/09/17 07:13:23;;;;;;;3.23;3.03;;;13.10;99.90;;;;;;485081;245;28699;-70
2021/09/17 07:15:24;;;;;;;5.20;3.00;;;13.20;99.90;;;;;;485189;245;28342;-70
2021/09/17 07:17:25;;;;;;;3.00;2.70;;;13.20;99.90;;;;;;485221;245;28194;-70
2021/09/17 07:19:27;;;;;;;3.20;3.00;;;13.30;99.90;;;;;;485112;245;28699;-70
2021/09/17 07:21:29;;;;;;;2.83;2.63;;;;;;;;;;485232;245;28968;-70
2021/09/17 07:23:32;;;;;;;3.00;2.80;;;;;;;;;;485228;245;27067;-72
2021/09/17 07:25:33;;;;;;;3.37;3.07;;;13.50;99.90;;;;;;485161;245;27003;-71
2021/09/17 07:27:34;;;;;;;2.93;2.73;;;13.60;99.90;;;;;;485205;245;28217;-70
2021/09/17 07:29:35;;;;;;;3.17;2.97;;;13.70;99.90;;;;;;485197;245;28247;-70
2021/09/17 07:31:37;;;;;;;3.10;2.90;;;13.70;99.90;;;;;;485172;245;28318;-70
2021/09/17 07:33:38;;;;;;;2.80;2.60;;;13.80;99.90;;;;;;485166;245;28704;-71
2021/09/17 07:35:40;;;;;;;3.47;2.70;;;;;;;;;;485227;245;28808;-70
2021/09/17 07:37:41;;;;;;;3.07;2.83;;;14.00;99.90;;;;;;485205;245;28007;-70
2021/09/17 07:39:43;;;;;;;5.60;3.00;;;14.10;99.90;;;;;;485190;245;28195;-70
2021/09/17 07:41:44;;;;;;;3.63;3.33;;;14.30;99.90;;;;;;485214;245;28428;-72
2021/09/17 07:43:45;;;;;;;4.00;2.90;;;14.30;99.90;;;;;;485199;245;28358;-70
2021/09/17 07:45:46;;;;;;;3.50;3.30;;;14.50;99.90;;;;;;485217;244;28297;-70
2021/09/17 07:47:47;;;;;;;3.17;2.97;;;14.50;99.90;;;;;;485220;245;28361;-70
2021/09/17 07:49:49;;;;;;;3.40;3.20;;;14.60;99.90;;;;;;485220;245;28586;-72
2021/09/17 07:51:50;;;;;;;4.40;3.90;;;14.70;99.90;;;;;;485224;245;28935;-72
2021/09/17 07:53:51;;;;;;;3.80;3.50;;;14.80;99.90;;;;;;485190;245;28507;-72
2021/09/17 07:55:53;;;;;;;3.60;3.40;;;14.90;99.90;;;;;;485207;245;29400;-72
2021/09/17 07:57:54;;;;;;;3.13;2.93;;;15.00;99.90;;;;;;485191;245;29394;-72
2021/09/17 07:59:55;;;;;;;2.90;2.70;;;15.00;99.90;;;;;;485170;245;29366;-72
2021/09/17 08:01:56;;;;;;;3.53;3.27;;;15.10;99.90;;;;;;485190;245;29371;-72
2021/09/17 08:03:57;;;;;;;4.33;3.00;;;15.10;99.90;;;;;;485170;245;28917;-71
2021/09/17 08:05:59;;;;;;;3.00;2.80;;;15.20;99.90;;;;;;485190;245;28845;-71
2021/09/17 08:08:01;;;;;;;3.93;3.33;;;15.20;99.90;;;;;;485174;243;28967;-71
2021/09/17 08:10:01;;;;;;;3.27;2.97;;;15.10;99.90;;;;;;485170;245;28886;-71
2021/09/17 08:12:02;;;;;;;3.63;3.20;;;15.10;99.90;;;;;;485125;245;28879;-69
2021/09/17 08:14:04;;;;;;;5.40;3.40;;;15.10;99.90;;;;;;485207;245;28604;-71
2021/09/17 08:16:05;;;;;;;4.37;3.67;;;15.20;99.90;;;;;;485136;245;28956;-71
2021/09/17 08:18:06;;;;;;;3.50;3.30;;;15.20;99.90;;;;;;485160;245;28897;-71
2021/09/17 08:20:07;;;;;;;3.17;2.97;;;15.20;99.90;;;;;;485142;245;28940;-71
2021/09/17 08:22:09;;;;;;;3.87;3.57;;;15.30;99.90;;;;;;485158;245;29385;-71
2021/09/17 08:24:17;;;;;;;3.43;3.13;;;;;;;;;;485201;245;29536;-71
2021/09/17 08:26:15;;;;;;;3.30;3.10;;;15.30;99.90;;;;;;484894;245;27534;-70
2021/09/17 08:28:16;;;;;;;3.33;3.13;;;15.30;99.90;;;;;;485163;245;28939;-71
2021/09/17 08:30:17;;;;;;;3.33;3.03;;;15.40;99.90;;;;;;485186;245;28860;-70
2021/09/17 08:32:18;;;;;;;3.20;3.00;;;15.60;99.90;;;;;;485179;245;28893;-69
2021/09/17 08:34:20;;;;;;;2.80;2.60;;;15.70;99.90;;;;;;485237;245;28871;-69
2021/09/17 08:36:21;;;;;;;3.00;2.67;;;15.80;99.90;;;;;;485213;245;28892;-72
2021/09/17 08:38:22;;;;;;;3.20;3.00;;;15.90;99.90;;;;;;485191;245;28892;-72
2021/09/17 08:40:25;;;;;;;3.87;3.37;;;16.00;99.90;;;;;;485216;245;29321;-72
2021/09/17 08:42:25;;;;;;;2.63;2.43;;;16.10;99.90;;;;;;485121;245;29365;-72
2021/09/17 08:44:26;;;;;;;3.80;3.50;;;16.20;99.90;;;;;;485217;245;29379;-71
2021/09/17 08:46:27;;;;;;;3.40;3.10;;;16.50;99.90;;;;;;485222;245;29415;-70
2021/09/17 08:48:28;;;;;;;3.47;3.13;;;16.50;99.90;;;;;;485243;245;28927;-70
2021/09/17 08:50:30;;;;;;;3.73;3.43;;;16.50;99.90;;;;;;485229;245;28910;-69
2021/09/17 08:52:31;;;;;;;3.50;3.20;;;16.60;99.90;;;;;;485178;245;28941;-69
2021/09/17 08:54:32;;;;;;;4.67;3.23;;;16.60;99.90;;;;;;485257;245;28903;-70
2021/09/17 08:56:33;;;;;;;3.70;3.03;;;16.50;99.90;;;;;;485213;245;28905;-70
2021/09/17 08:58:35;;;;;;;4.70;3.23;;;16.50;99.90;;;;;;485234;245;28913;-72
2021/09/17 09:00:36;;;;;;;4.00;3.20;;;16.40;99.90;;;;;;485223;245;28861;-72
2021/09/17 09:02:38;;;;;;;3.73;2.97;;;16.40;99.90;;;;;;485196;245;28894;-70
2021/09/17 09:04:41;;;;;;;3.00;2.80;;;16.40;99.90;;;;;;485189;245;28861;-69
2021/09/17 09:06:40;;;;;;;3.33;3.03;;;16.30;99.90;;;;;;485088;245;29339;-72
2021/09/17 09:08:41;;;;;;;3.07;2.87;;;16.30;99.90;;;;;;485249;245;29383;-72
2021/09/17 09:10:42;;;;;;;3.03;2.83;;;16.30;99.90;;;;;;485215;245;29395;-72
2021/09/17 09:12:43;;;;;;;5.83;2.87;;;16.20;99.90;;;;;;485259;245;28888;-71
2021/09/17 09:14:45;;;;;;;2.47;2.37;;;16.20;99.90;;;;;;485244;245;28929;-72
2021/09/17 09:16:46;;;;;;;2.97;2.63;;;16.10;99.90;;;;;;485217;245;28895;-72
2021/09/17 09:18:47;;;;;;;3.33;2.60;;;16.10;99.90;;;;;;485284;245;28902;-71
2021/09/17 09:20:48;;;;;;;5.00;2.43;;;16.00;99.90;;;;;;485277;245;28951;-72
2021/09/17 09:22:50;;;;;;;3.63;2.80;;;16.00;99.90;;;;;;485270;245;28849;-72
2021/09/17 09:24:53;;;;;;;3.17;2.87;;;16.10;99.90;;;;;;485285;245;28916;-70
2021/09/17 09:26:52;;;;;;;3.10;2.90;;;16.20;99.90;;;;;;485127;245;28884;-69
2021/09/17 09:28:53;;;;;;;3.30;3.00;;;16.20;99.90;;;;;;485231;245;29407;-71
2021/09/17 09:30:55;;;;;;;3.40;3.10;;;16.30;99.90;;;;;;485222;245;29414;-70
2021/09/17 09:32:56;;;;;;;3.77;3.33;;;16.30;99.90;;;;;;485283;245;29360;-72
2021/09/17 09:34:57;;;;;;;4.40;2.87;;;16.30;99.90;;;;;;485332;243;29303;-72
2021/09/17 09:36:58;;;;;;;3.30;2.60;;;16.40;99.90;;;;;;485298;245;28897;-72
2021/09/17 09:39:00;;;;;;;3.37;2.60;;;16.40;99.90;;;;;;485161;245;28967;-69
2021/09/17 09:41:01;;;;;;;2.77;2.57;;;16.40;99.90;;;;;;485090;245;28933;-70
2021/09/17 09:43:02;;;;;;;3.87;3.00;;;16.50;99.90;;;;;;485092;245;28895;-72
2021/09/17 09:45:03;;;;;;;3.50;3.20;;;16.40;99.90;;;;;;485091;245;28935;-71
2021/09/17 09:47:05;;;;;;;2.87;2.67;;;16.40;99.90;;;;;;485089;245;28898;-71
2021/09/17 09:49:06;;;;;;;3.10;2.87;;;16.40;99.90;;;;;;485082;245;28867;-71
2021/09/17 09:51:07;;;;;;;4.03;2.63;;;16.40;99.90;;;;;;485050;244;28858;-71
2021/09/17 09:53:08;;;;;;;3.50;3.20;;;16.40;99.90;;;;;;485067;245;28905;-70
2021/09/17 09:55:10;;;;;;;2.93;2.73;;;16.50;99.90;;;;;;479286;245;29227;-71
2021/09/17 09:57:11;;;;;;;3.00;2.80;;;16.60;99.90;;;;;;484343;244;29335;-71
2021/09/17 09:59:12;;;;;;;3.17;2.87;;;16.60;99.90;;;;;;467332;253;29414;-71
2021/09/17 10:01:13;;;;;;;2.60;2.40;;;16.70;99.90;;;;;;484292;244;28805;-71
2021/09/17 10:03:15;;;;;;;2.77;2.57;;;16.80;99.90;;;;;;467297;253;28896;-71
2021/09/17 10:05:16;;;;;;;2.50;2.30;;;16.80;99.90;;;;;;484295;245;28787;-71
2021/09/17 10:07:17;;;;;;;2.27;2.17;;;16.90;99.90;;;;;;467312;253;29003;-72
2021/09/17 10:09:18;;;;;;;3.67;2.40;;;16.90;99.90;;;;;;484353;245;28850;-71
2021/09/17 10:11:20;;;;;;;2.27;2.17;;;16.90;99.90;;;;;;467322;253;29008;-71
2021/09/17 10:13:21;;;;;;;2.60;2.50;;;16.90;99.90;;;;;;484288;245;28861;-72
2021/09/17 10:15:22;;;;;;;1.97;1.87;;;16.90;99.90;;;;;;467304;253;28923;-71
2021/09/17 10:17:23;;;;;;;2.63;2.50;;;17.00;99.90;;;;;;484315;245;28906;-71
2021/09/17 10:19:25;;;;;;;3.53;2.17;;;17.00;99.90;;;;;;467343;253;29451;-71
2021/09/17 10:21:26;;;;;;;2.70;2.50;;;17.00;99.90;;;;;;484325;245;29245;-71
2021/09/17 10:23:27;;;;;;;2.43;2.30;;;17.00;99.90;;;;;;467325;253;29403;-71
2021/09/17 10:25:28;;;;;;;2.80;2.60;;;17.10;99.90;;;;;;484334;245;28900;-72
2021/09/17 10:27:30;;;;;;;2.47;2.27;;;17.10;99.90;;;;;;467311;253;28923;-71
2021/09/17 10:29:31;;;;;;;2.50;2.40;;;17.20;99.90;;;;;;484337;245;28925;-71
2021/09/17 10:31:32;;;;;;;2.03;1.93;;;17.20;99.90;;;;;;467314;253;28906;-71